sensor_id;sensor_type;location;lat;lon;timestamp;pressure;altitude;pressure_sealevel;temperature;humidity
21273;BME280;36726;52.328;10.552;2023-04-21T00:02:19;100811.22;;;8.06;100.00
21273;BME280;36726;52.328;10.552;2023-04-21T00:04:46;100810.38;;;8.07;100.00
21273;BME280;36726;52.328;10.552;2023-04-21T00:07:13;100813.84;;;8.06;100.00
21273;BME280;36726;52.328;10.552;2023-04-21T00:09:40;100813.81;;;8.04;100.00
21273;BME280;36726;52.328;10.552;2023-04-21T00:12:07;100810.28;;;8.04;100.00
21273;BME280;36726;52.328;10.552;2023-04-21T00:14:34;100813.78;;;8.03;100.00
21273;BME280;36726;52.328;10.552;2023-04-21T00:17:01;100806.66;;;8.00;100.00
21273;BME280;36726;52.328;10.552;2023-04-21T00:19:27;100803.19;;;8.01;100.00
21273;BME280;36726;52.328;10.552;2023-04-21T00:21:55;100794.41;;;8.01;100.00
21273;BME280;36726;52.328;10.552;2023-04-21T00:24:24;100807.56;;;8.01;100.00
21273;BME280;36726;52.328;10.552;2023-04-21T00:26:51;100797.06;;;8.02;100.00
21273;BME280;36726;52.328;10.552;2023-04-21T00:29:18;100798.81;;;8.02;100.00
21273;BME280;36726;52.328;10.552;2023-04-21T00:31:45;100795.34;;;8.03;100.00
21273;BME280;36726;52.328;10.552;2023-04-21T00:34:12;100787.44;;;8.03;100.00
21273;BME280;36726;52.328;10.552;2023-04-21T00:36:39;100788.28;;;8.03;100.00
21273;BME280;36726;52.328;10.552;2023-04-21T00:39:05;100783.94;;;8.04;100.00
21273;BME280;36726;52.328;10.552;2023-04-21T00:41:33;100782.19;;;8.04;100.00
21273;BME280;36726;52.328;10.552;2023-04-21T00:44:07;100789.19;;;8.04;100.00
21273;BME280;36726;52.328;10.552;2023-04-21T00:46:34;100788.28;;;8.03;100.00
21273;BME280;36726;52.328;10.552;2023-04-21T00:49:05;100783.94;;;8.04;100.00
21273;BME280;36726;52.328;10.552;2023-04-21T00:51:34;100781.25;;;8.02;100.00
21273;BME280;36726;52.328;10.552;2023-04-21T00:54:03;100776.00;;;8.02;100.00
21273;BME280;36726;52.328;10.552;2023-04-21T00:56:33;100784.78;;;8.03;100.00
21273;BME280;36726;52.328;10.552;2023-04-21T00:59:01;100777.75;;;8.03;100.00
21273;BME280;36726;52.328;10.552;2023-04-21T01:01:29;100778.66;;;8.04;100.00
21273;BME280;36726;52.328;10.552;2023-04-21T01:03:58;100766.34;;;8.03;100.00
21273;BME280;36726;52.328;10.552;2023-04-21T01:06:29;100767.28;;;8.05;100.00
21273;BME280;36726;52.328;10.552;2023-04-21T01:08:58;100767.28;;;8.05;100.00
21273;BME280;36726;52.328;10.552;2023-04-21T01:11:24;100763.75;;;8.04;100.00
21273;BME280;36726;52.328;10.552;2023-04-21T01:13:52;100761.97;;;8.03;100.00
21273;BME280;36726;52.328;10.552;2023-04-21T01:16:23;100767.19;;;8.02;100.00
21273;BME280;36726;52.328;10.552;2023-04-21T01:18:52;100754.03;;;8.02;100.00
21273;BME280;36726;52.328;10.552;2023-04-21T01:21:19;100753.97;;;8.00;100.00
21273;BME280;36726;52.328;10.552;2023-04-21T01:23:47;100761.00;;;8.00;100.00
21273;BME280;36726;52.328;10.552;2023-04-21T01:26:19;100763.59;;;7.98;100.00
21273;BME280;36726;52.328;10.552;2023-04-21T01:28:47;100768.00;;;7.98;100.00
21273;BME280;36726;52.328;10.552;2023-04-21T01:31:15;100759.16;;;7.96;100.00
21273;BME280;36726;52.328;10.552;2023-04-21T01:33:43;100760.84;;;7.94;100.00
21273;BME280;36726;52.328;10.552;2023-04-21T01:36:09;100764.31;;;7.93;100.00
21273;BME280;36726;52.328;10.552;2023-04-21T01:38:38;100761.69;;;7.93;100.00
21273;BME280;36726;52.328;10.552;2023-04-21T01:41:05;100758.19;;;7.92;100.00
21273;BME280;36726;52.328;10.552;2023-04-21T01:43:31;100759.00;;;7.91;100.00
21273;BME280;36726;52.328;10.552;2023-04-21T01:45:58;100752.81;;;7.89;100.00
21273;BME280;36726;52.328;10.552;2023-04-21T01:48:25;100760.75;;;7.91;100.00
21273;BME280;36726;52.328;10.552;2023-04-21T01:50:52;100758.97;;;7.90;100.00
21273;BME280;36726;52.328;10.552;2023-04-21T01:53:18;100753.72;;;7.90;100.00
21273;BME280;36726;52.328;10.552;2023-04-21T01:55:45;100755.44;;;7.89;100.00
21273;BME280;36726;52.328;10.552;2023-04-21T01:58:12;100757.22;;;7.89;100.00
21273;BME280;36726;52.328;10.552;2023-04-21T02:00:39;100758.03;;;7.88;100.00
21273;BME280;36726;52.328;10.552;2023-04-21T02:03:05;100755.47;;;7.91;100.00
21273;BME280;36726;52.328;10.552;2023-04-21T02:05:33;100754.63;;;7.90;100.00
21273;BME280;36726;52.328;10.552;2023-04-21T02:07:59;100755.47;;;7.91;100.00
21273;BME280;36726;52.328;10.552;2023-04-21T02:10:26;100753.72;;;7.90;100.00
21273;BME280;36726;52.328;10.552;2023-04-21T02:12:53;100760.75;;;7.91;100.00
21273;BME280;36726;52.328;10.552;2023-04-21T02:15:20;100757.28;;;7.92;100.00
21273;BME280;36726;52.328;10.552;2023-04-21T02:17:46;100752.00;;;7.92;100.00
21273;BME280;36726;52.328;10.552;2023-04-21T02:20:13;100748.47;;;7.91;100.00
21273;BME280;36726;52.328;10.552;2023-04-21T02:22:40;100748.44;;;7.90;100.00
21273;BME280;36726;52.328;10.552;2023-04-21T02:25:06;100747.53;;;7.89;100.00
21273;BME280;36726;52.328;10.552;2023-04-21T02:27:33;100743.22;;;7.91;100.00
21273;BME280;36726;52.328;10.552;2023-04-21T02:30:00;100749.38;;;7.92;100.00
21273;BME280;36726;52.328;10.552;2023-04-21T02:32:27;100737.13;;;7.92;100.00
21273;BME280;36726;52.328;10.552;2023-04-21T02:34:54;100739.69;;;7.91;100.00
21273;BME280;36726;52.328;10.552;2023-04-21T02:37:22;100735.31;;;7.91;100.00
21273;BME280;36726;52.328;10.552;2023-04-21T02:39:51;100744.94;;;7.91;100.00
21273;BME280;36726;52.328;10.552;2023-04-21T02:42:18;100735.28;;;7.90;100.00
21273;BME280;36726;52.328;10.552;2023-04-21T02:44:46;100732.59;;;7.88;100.00
21273;BME280;36726;52.328;10.552;2023-04-21T02:47:16;100736.97;;;7.88;100.00
21273;BME280;36726;52.328;10.552;2023-04-21T02:49:43;100737.84;;;7.87;100.00
21273;BME280;36726;52.328;10.552;2023-04-21T02:52:11;100735.13;;;7.85;100.00
21273;BME280;36726;52.328;10.552;2023-04-21T02:54:37;100736.94;;;7.86;100.00
21273;BME280;36726;52.328;10.552;2023-04-21T02:57:04;100733.41;;;7.86;100.00
21273;BME280;36726;52.328;10.552;2023-04-21T02:59:31;100735.13;;;7.85;100.00
21273;BME280;36726;52.328;10.552;2023-04-21T03:01:58;100734.16;;;7.82;100.00
21273;BME280;36726;52.328;10.552;2023-04-21T03:04:25;100735.94;;;7.81;100.00
21273;BME280;36726;52.328;10.552;2023-04-21T03:06:53;100735.91;;;7.80;100.00
21273;BME280;36726;52.328;10.552;2023-04-21T03:09:19;100731.47;;;7.79;100.00
21273;BME280;36726;52.328;10.552;2023-04-21T03:11:47;100734.09;;;7.79;100.00
21273;BME280;36726;52.328;10.552;2023-04-21T03:14:13;100727.00;;;7.76;100.00
21273;BME280;36726;52.328;10.552;2023-04-21T03:16:40;100728.75;;;7.76;100.00
21273;BME280;36726;52.328;10.552;2023-04-21T03:19:07;100735.75;;;7.75;100.00
21273;BME280;36726;52.328;10.552;2023-04-21T03:21:36;100724.38;;;7.76;100.00
21273;BME280;36726;52.328;10.552;2023-04-21T03:24:04;100719.06;;;7.75;100.00
21273;BME280;36726;52.328;10.552;2023-04-21T03:26:31;100721.69;;;7.75;100.00
21273;BME280;36726;52.328;10.552;2023-04-21T03:28:58;100729.56;;;7.73;100.00
21273;BME280;36726;52.328;10.552;2023-04-21T03:31:25;100722.53;;;7.72;100.00
21273;BME280;36726;52.328;10.552;2023-04-21T03:33:51;100713.72;;;7.72;100.00
21273;BME280;36726;52.328;10.552;2023-04-21T03:36:18;100713.69;;;7.70;100.00
21273;BME280;36726;52.328;10.552;2023-04-21T03:38:46;100719.84;;;7.71;100.00
21273;BME280;36726;52.328;10.552;2023-04-21T03:41:12;100725.03;;;7.68;100.00
21273;BME280;36726;52.328;10.552;2023-04-21T03:43:40;100723.25;;;7.67;100.00
21273;BME280;36726;52.328;10.552;2023-04-21T03:46:06;100729.34;;;7.66;100.00
21273;BME280;36726;52.328;10.552;2023-04-21T03:48:33;100728.50;;;7.65;100.00
21273;BME280;36726;52.328;10.552;2023-04-21T03:51:00;100732.81;;;7.63;100.00
21273;BME280;36726;52.328;10.552;2023-04-21T03:53:26;100732.78;;;7.62;100.00
21273;BME280;36726;52.328;10.552;2023-04-21T03:55:53;100730.16;;;7.62;100.00
21273;BME280;36726;52.328;10.552;2023-04-21T03:58:20;100741.50;;;7.61;100.00
21273;BME280;36726;52.328;10.552;2023-04-21T04:00:46;100736.28;;;7.62;100.00
21273;BME280;36726;52.328;10.552;2023-04-21T04:03:13;100738.88;;;7.61;100.00
21273;BME280;36726;52.328;10.552;2023-04-21T04:05:40;100733.59;;;7.61;100.00
21273;BME280;36726;52.328;10.552;2023-04-21T04:08:07;100734.50;;;7.61;100.00
21273;BME280;36726;52.328;10.552;2023-04-21T04:10:34;100731.91;;;7.63;100.00
21273;BME280;36726;52.328;10.552;2023-04-21T04:13:00;100731.91;;;7.63;100.00
21273;BME280;36726;52.328;10.552;2023-04-21T04:15:27;100728.41;;;7.64;100.00
21273;BME280;36726;52.328;10.552;2023-04-21T04:17:54;100733.69;;;7.64;100.00
21273;BME280;36726;52.328;10.552;2023-04-21T04:20:21;100730.28;;;7.68;100.00
21273;BME280;36726;52.328;10.552;2023-04-21T04:22:48;100731.19;;;7.68;100.00
21273;BME280;36726;52.328;10.552;2023-04-21T04:25:14;100727.75;;;7.71;100.00
21273;BME280;36726;52.328;10.552;2023-04-21T04:27:42;100723.34;;;7.71;100.00
21273;BME280;36726;52.328;10.552;2023-04-21T04:30:12;100728.66;;;7.73;100.00
21273;BME280;36726;52.328;10.552;2023-04-21T04:32:39;100732.22;;;7.75;100.00
21273;BME280;36726;52.328;10.552;2023-04-21T04:35:08;100733.16;;;7.77;100.00
21273;BME280;36726;52.328;10.552;2023-04-21T04:37:35;100734.09;;;7.79;100.00
21273;BME280;36726;52.328;10.552;2023-04-21T04:40:04;100730.69;;;7.83;100.00
21273;BME280;36726;52.328;10.552;2023-04-21T04:42:32;100729.00;;;7.85;100.00
21273;BME280;36726;52.328;10.552;2023-04-21T04:45:00;100730.81;;;7.87;100.00
21273;BME280;36726;52.328;10.552;2023-04-21T04:47:27;100725.59;;;7.89;100.00
21273;BME280;36726;52.328;10.552;2023-04-21T04:49:54;100733.66;;;7.95;100.00
21273;BME280;36726;52.328;10.552;2023-04-21T04:52:21;100729.31;;;7.97;100.00
21273;BME280;36726;52.328;10.552;2023-04-21T04:54:47;100746.94;;;7.99;100.00
21273;BME280;36726;52.328;10.552;2023-04-21T04:57:14;100740.88;;;8.03;100.00
21273;BME280;36726;52.328;10.552;2023-04-21T04:59:41;100748.91;;;8.08;100.00
21273;BME280;36726;52.328;10.552;2023-04-21T05:02:07;100747.22;;;8.10;100.00
21273;BME280;36726;52.328;10.552;2023-04-21T05:04:36;100747.28;;;8.13;100.00
21273;BME280;36726;52.328;10.552;2023-04-21T05:07:03;100750.91;;;8.18;100.00
21273;BME280;36726;52.328;10.552;2023-04-21T05:09:31;100745.75;;;8.21;100.00
21273;BME280;36726;52.328;10.552;2023-04-21T05:11:58;100743.22;;;8.24;100.00
21273;BME280;36726;52.328;10.552;2023-04-21T05:14:26;100751.28;;;8.30;100.00
21273;BME280;36726;52.328;10.552;2023-04-21T05:16:52;100752.28;;;8.35;100.00
21273;BME280;36726;52.328;10.552;2023-04-21T05:19:19;100749.75;;;8.39;100.00
21273;BME280;36726;52.328;10.552;2023-04-21T05:21:46;100744.59;;;8.44;100.00
21273;BME280;36726;52.328;10.552;2023-04-21T05:24:13;100753.53;;;8.51;100.00
21273;BME280;36726;52.328;10.552;2023-04-21T05:26:40;100750.13;;;8.55;100.00
21273;BME280;36726;52.328;10.552;2023-04-21T05:29:07;100750.28;;;8.61;100.00
21273;BME280;36726;52.328;10.552;2023-04-21T05:31:33;100748.59;;;8.64;100.00
21273;BME280;36726;52.328;10.552;2023-04-21T05:34:00;100755.72;;;8.68;100.00
21273;BME280;36726;52.328;10.552;2023-04-21T05:36:27;100766.41;;;8.74;100.00
21273;BME280;36726;52.328;10.552;2023-04-21T05:38:55;100763.88;;;8.79;100.00
21273;BME280;36726;52.328;10.552;2023-04-21T05:41:22;100768.41;;;8.84;100.00
21273;BME280;36726;52.328;10.552;2023-04-21T05:43:49;100762.38;;;8.90;100.00
21273;BME280;36726;52.328;10.552;2023-04-21T05:46:16;100773.03;;;8.94;100.00
21273;BME280;36726;52.328;10.552;2023-04-21T05:48:42;100767.91;;;9.02;100.00
21273;BME280;36726;52.328;10.552;2023-04-21T05:51:09;100774.13;;;9.44;100.00
21273;BME280;36726;52.328;10.552;2023-04-21T05:53:40;100768.41;;;9.68;100.00
21273;BME280;36726;52.328;10.552;2023-04-21T05:56:08;100770.38;;;9.78;100.00
21273;BME280;36726;52.328;10.552;2023-04-21T05:58:35;100768.75;;;9.84;100.00
21273;BME280;36726;52.328;10.552;2023-04-21T06:01:02;100780.34;;;9.91;100.00
21273;BME280;36726;52.328;10.552;2023-04-21T06:03:31;100771.56;;;9.95;100.00
21273;BME280;36726;52.328;10.552;2023-04-21T06:06:02;100779.56;;;9.98;100.00
21273;BME280;36726;52.328;10.552;2023-04-21T06:08:29;100777.88;;;10.01;100.00
21273;BME280;36726;52.328;10.552;2023-04-21T06:10:56;100772.63;;;10.03;100.00
21273;BME280;36726;52.328;10.552;2023-04-21T06:13:23;100772.63;;;10.03;100.00
21273;BME280;36726;52.328;10.552;2023-04-21T06:15:49;100769.19;;;10.07;100.00
21273;BME280;36726;52.328;10.552;2023-04-21T06:18:16;100769.25;;;10.10;100.00
21273;BME280;36726;52.328;10.552;2023-04-21T06:20:51;100768.44;;;10.14;100.00
21273;BME280;36726;52.328;10.552;2023-04-21T06:23:18;100766.75;;;10.17;100.00
21273;BME280;36726;52.328;10.552;2023-04-21T06:25:45;100765.97;;;10.23;100.00
21273;BME280;36726;52.328;10.552;2023-04-21T06:28:12;100765.16;;;10.27;100.00
21273;BME280;36726;52.328;10.552;2023-04-21T06:30:38;100759.97;;;10.33;100.00
21273;BME280;36726;52.328;10.552;2023-04-21T06:33:07;100768.91;;;10.39;100.00
21273;BME280;36726;52.328;10.552;2023-04-21T06:35:34;100758.38;;;10.44;100.00
21273;BME280;36726;52.328;10.552;2023-04-21T06:38:00;100756.75;;;10.51;100.00
21273;BME280;36726;52.328;10.552;2023-04-21T06:40:27;100765.69;;;10.60;100.00
21273;BME280;36726;52.328;10.552;2023-04-21T06:42:54;100764.06;;;10.67;100.00
21273;BME280;36726;52.328;10.552;2023-04-21T06:45:21;100755.31;;;10.72;100.00
21273;BME280;36726;52.328;10.552;2023-04-21T06:47:48;100761.59;;;10.80;100.00
21273;BME280;36726;52.328;10.552;2023-04-21T06:50:15;100766.19;;;10.90;100.00
21273;BME280;36726;52.328;10.552;2023-04-21T06:52:42;100752.19;;;10.99;100.00
21273;BME280;36726;52.328;10.552;2023-04-21T06:55:08;100753.13;;;11.05;100.00
21273;BME280;36726;52.328;10.552;2023-04-21T06:57:35;100755.00;;;11.14;100.00
21273;BME280;36726;52.328;10.552;2023-04-21T07:00:02;100755.13;;;11.21;100.00
21273;BME280;36726;52.328;10.552;2023-04-21T07:02:31;100753.47;;;11.29;100.00
21273;BME280;36726;52.328;10.552;2023-04-21T07:04:57;100748.28;;;11.38;100.00
21273;BME280;36726;52.328;10.552;2023-04-21T07:07:24;100748.34;;;11.43;99.51
21273;BME280;36726;52.328;10.552;2023-04-21T07:09:51;100741.41;;;11.52;99.31
21273;BME280;36726;52.328;10.552;2023-04-21T07:12:18;100743.25;;;11.60;99.63
21273;BME280;36726;52.328;10.552;2023-04-21T07:14:44;100744.25;;;11.66;98.24
21273;BME280;36726;52.328;10.552;2023-04-21T07:17:11;100732.84;;;11.75;97.32
21273;BME280;36726;52.328;10.552;2023-04-21T07:19:38;100733.84;;;11.86;96.18
21273;BME280;36726;52.328;10.552;2023-04-21T07:22:05;100737.47;;;11.95;95.08
21273;BME280;36726;52.328;10.552;2023-04-21T07:24:32;100731.41;;;12.05;94.52
21273;BME280;36726;52.328;10.552;2023-04-21T07:27:00;100733.22;;;12.14;93.64
21273;BME280;36726;52.328;10.552;2023-04-21T07:29:28;100728.91;;;12.23;90.33
21273;BME280;36726;52.328;10.552;2023-04-21T07:31:54;100731.66;;;12.34;91.79
21273;BME280;36726;52.328;10.552;2023-04-21T07:34:21;100732.59;;;12.42;91.58
21273;BME280;36726;52.328;10.552;2023-04-21T07:36:49;100724.69;;;12.51;90.86
21273;BME280;36726;52.328;10.552;2023-04-21T07:39:17;100718.59;;;12.61;90.20
21273;BME280;36726;52.328;10.552;2023-04-21T07:41:44;100714.25;;;12.72;90.44
21273;BME280;36726;52.328;10.552;2023-04-21T07:44:11;100716.06;;;12.82;89.68
21273;BME280;36726;52.328;10.552;2023-04-21T07:46:38;100718.78;;;12.90;86.93
21273;BME280;36726;52.328;10.552;2023-04-21T07:49:04;100717.94;;;12.97;88.30
21273;BME280;36726;52.328;10.552;2023-04-21T07:51:31;100708.28;;;13.03;86.69
21273;BME280;36726;52.328;10.552;2023-04-21T07:53:57;100713.63;;;13.14;86.64
21273;BME280;36726;52.328;10.552;2023-04-21T07:56:24;100713.69;;;13.23;85.26
21273;BME280;36726;52.328;10.552;2023-04-21T07:58:51;100710.16;;;13.31;82.81
21273;BME280;36726;52.328;10.552;2023-04-21T08:01:18;100710.19;;;13.43;84.00
21273;BME280;36726;52.328;10.552;2023-04-21T08:03:45;100712.88;;;13.52;83.37
21273;BME280;36726;52.328;10.552;2023-04-21T08:06:13;100715.56;;;13.60;82.49
21273;BME280;36726;52.328;10.552;2023-04-21T08:08:39;100712.94;;;13.68;82.66
21273;BME280;36726;52.328;10.552;2023-04-21T08:11:06;100705.84;;;13.74;81.85
21273;BME280;36726;52.328;10.552;2023-04-21T08:13:36;100704.97;;;13.81;80.65
21273;BME280;36726;52.328;10.552;2023-04-21T08:16:03;100705.00;;;13.90;80.70
21273;BME280;36726;52.328;10.552;2023-04-21T08:18:29;100705.91;;;13.97;80.05
21273;BME280;36726;52.328;10.552;2023-04-21T08:20:56;100706.78;;;14.05;79.03
21273;BME280;36726;52.328;10.552;2023-04-21T08:23:23;100708.59;;;14.13;77.97
21273;BME280;36726;52.328;10.552;2023-04-21T08:25:50;100709.47;;;14.21;77.89
21273;BME280;36726;52.328;10.552;2023-04-21T08:28:16;100698.84;;;14.26;76.04
21273;BME280;36726;52.328;10.552;2023-04-21T08:30:43;100702.41;;;14.32;76.21
21273;BME280;36726;52.328;10.552;2023-04-21T08:33:10;100697.09;;;14.40;75.73
21273;BME280;36726;52.328;10.552;2023-04-21T08:35:40;100698.88;;;14.45;75.05
21273;BME280;36726;52.328;10.552;2023-04-21T08:38:27;100695.28;;;14.54;74.28
21273;BME280;36726;52.328;10.552;2023-04-21T08:40:54;100694.38;;;14.63;74.48
21273;BME280;36726;52.328;10.552;2023-04-21T08:43:22;100697.03;;;14.70;73.47
21273;BME280;36726;52.328;10.552;2023-04-21T08:45:50;100691.69;;;14.79;73.28
21273;BME280;36726;52.328;10.552;2023-04-21T08:48:18;100693.44;;;14.86;73.72
21273;BME280;36726;52.328;10.552;2023-04-21T08:50:50;100687.22;;;14.90;71.18
21273;BME280;36726;52.328;10.552;2023-04-21T08:53:18;100686.31;;;14.97;71.96
21273;BME280;36726;52.328;10.552;2023-04-21T08:55:45;100689.84;;;15.02;71.46
21273;BME280;36726;52.328;10.552;2023-04-21T08:58:35;100693.38;;;15.10;70.85
21273;BME280;36726;52.328;10.552;2023-04-21T09:01:02;100692.50;;;15.14;68.71
21273;BME280;36726;52.328;10.552;2023-04-21T09:03:29;100693.34;;;15.22;69.72
21273;BME280;36726;52.328;10.552;2023-04-21T09:05:58;100694.19;;;15.27;69.30
21273;BME280;36726;52.328;10.552;2023-04-21T09:08:27;100695.09;;;15.32;68.55
21273;BME280;36726;52.328;10.552;2023-04-21T09:10:56;100689.69;;;15.38;67.64
21273;BME280;36726;52.328;10.552;2023-04-21T09:13:31;100688.84;;;15.42;66.55
21273;BME280;36726;52.328;10.552;2023-04-21T09:16:01;100687.03;;;15.50;66.86
21273;BME280;36726;52.328;10.552;2023-04-21T09:18:29;100687.00;;;15.55;67.42
21273;BME280;36726;52.328;10.552;2023-04-21T09:21:15;100688.72;;;15.62;66.97
21273;BME280;36726;52.328;10.552;2023-04-21T09:26:13;100686.00;;;15.76;63.06
21273;BME280;36726;52.328;10.552;2023-04-21T09:28:42;100681.50;;;15.81;64.56
21273;BME280;36726;52.328;10.552;2023-04-21T09:33:50;100680.53;;;15.91;61.24
21273;BME280;36726;52.328;10.552;2023-04-21T09:36:21;100678.75;;;15.96;59.39
21273;BME280;36726;52.328;10.552;2023-04-21T09:38:59;100682.22;;;16.04;60.08
21273;BME280;36726;52.328;10.552;2023-04-21T09:41:30;100676.00;;;16.06;58.20
21273;BME280;36726;52.328;10.552;2023-04-21T09:43:58;100664.38;;;16.12;60.39
21273;BME280;36726;52.328;10.552;2023-04-21T09:46:33;100668.78;;;16.19;61.41
21273;BME280;36726;52.328;10.552;2023-04-21T09:49:00;100671.38;;;16.26;58.60
21273;BME280;36726;52.328;10.552;2023-04-21T09:51:28;100660.63;;;16.32;59.07
21273;BME280;36726;52.328;10.552;2023-04-21T09:54:18;100671.25;;;16.40;58.46
21273;BME280;36726;52.328;10.552;2023-04-21T09:56:52;100660.53;;;16.46;58.87
21273;BME280;36726;52.328;10.552;2023-04-21T09:59:23;100664.94;;;16.51;58.14
21273;BME280;36726;52.328;10.552;2023-04-21T10:01:52;100667.56;;;16.56;57.19
21273;BME280;36726;52.328;10.552;2023-04-21T10:04:20;100670.22;;;16.57;54.89
21273;BME280;36726;52.328;10.552;2023-04-21T10:06:50;100659.53;;;16.61;53.81
21273;BME280;36726;52.328;10.552;2023-04-21T10:09:20;100656.75;;;16.67;55.73
21273;BME280;36726;52.328;10.552;2023-04-21T10:11:47;100647.84;;;16.69;56.60
21273;BME280;36726;52.328;10.552;2023-04-21T10:14:14;100653.16;;;16.72;56.42
21273;BME280;36726;52.328;10.552;2023-04-21T10:16:41;100650.41;;;16.78;55.50
21273;BME280;36726;52.328;10.552;2023-04-21T10:19:28;100646.81;;;16.82;54.82
21273;BME280;36726;52.328;10.552;2023-04-21T10:21:57;100648.53;;;16.88;54.66
21273;BME280;36726;52.328;10.552;2023-04-21T10:24:28;100640.44;;;16.92;53.36
21273;BME280;36726;52.328;10.552;2023-04-21T10:26:58;100640.38;;;16.98;54.84
21273;BME280;36726;52.328;10.552;2023-04-21T10:29:29;100647.44;;;17.04;55.13
21273;BME280;36726;52.328;10.552;2023-04-21T10:32:30;100645.63;;;17.07;55.05
21273;BME280;36726;52.328;10.552;2023-04-21T10:34:58;100640.19;;;17.12;54.84
21273;BME280;36726;52.328;10.552;2023-04-21T10:37:24;100630.34;;;17.15;55.48
21273;BME280;36726;52.328;10.552;2023-04-21T10:39:52;100622.25;;;17.21;55.40
21273;BME280;36726;52.328;10.552;2023-04-21T10:42:38;100631.97;;;17.28;55.20
21273;BME280;36726;52.328;10.552;2023-04-21T10:45:06;100622.97;;;17.34;52.29
21273;BME280;36726;52.328;10.552;2023-04-21T10:52:43;100622.75;;;17.52;51.86
21273;BME280;36726;52.328;10.552;2023-04-21T10:55:10;100612.97;;;17.52;49.55
21273;BME280;36726;52.328;10.552;2023-04-21T10:57:41;100617.31;;;17.56;49.49
21273;BME280;36726;52.328;10.552;2023-04-21T11:00:12;100605.69;;;17.60;50.18
21273;BME280;36726;52.328;10.552;2023-04-21T11:02:41;100609.16;;;17.66;50.26
21273;BME280;36726;52.328;10.552;2023-04-21T11:05:10;100598.44;;;17.69;48.58
21273;BME280;36726;52.328;10.552;2023-04-21T11:07:37;100596.59;;;17.72;48.96
21273;BME280;36726;52.328;10.552;2023-04-21T11:10:06;100596.50;;;17.77;48.51
21273;BME280;36726;52.328;10.552;2023-04-21T11:12:36;100604.50;;;17.80;47.52
21273;BME280;36726;52.328;10.552;2023-04-21T11:15:05;100598.22;;;17.82;47.17
21273;BME280;36726;52.328;10.552;2023-04-21T11:17:33;100596.41;;;17.84;47.25
21273;BME280;36726;52.328;10.552;2023-04-21T11:20:01;100589.16;;;17.91;47.94
21273;BME280;36726;52.328;10.552;2023-04-21T11:22:29;100582.81;;;17.98;47.74
21273;BME280;36726;52.328;10.552;2023-04-21T11:24:57;100579.00;;;18.09;47.25
21273;BME280;36726;52.328;10.552;2023-04-21T11:27:27;100578.03;;;18.15;46.90
21273;BME280;36726;52.328;10.552;2023-04-21T11:29:55;100572.63;;;18.18;45.93
21273;BME280;36726;52.328;10.552;2023-04-21T11:32:23;100571.63;;;18.22;47.01
21273;BME280;36726;52.328;10.552;2023-04-21T11:34:50;100563.50;;;18.28;47.93
21273;BME280;36726;52.328;10.552;2023-04-21T11:37:23;100564.22;;;18.37;47.80
21273;BME280;36726;52.328;10.552;2023-04-21T11:39:58;100576.66;;;18.43;45.94
21273;BME280;36726;52.328;10.552;2023-04-21T11:42:25;100567.69;;;18.44;45.44
21273;BME280;36726;52.328;10.552;2023-04-21T11:44:53;100567.75;;;18.41;45.47
21273;BME280;36726;52.328;10.552;2023-04-21T11:47:25;100567.69;;;18.44;45.14
21273;BME280;36726;52.328;10.552;2023-04-21T11:49:54;100561.47;;;18.42;45.22
21273;BME280;36726;52.328;10.552;2023-04-21T11:54:58;100559.69;;;18.42;45.27
21273;BME280;36726;52.328;10.552;2023-04-21T11:57:26;100564.00;;;18.49;45.52
21273;BME280;36726;52.328;10.552;2023-04-21T11:59:57;100550.47;;;18.57;44.45
21273;BME280;36726;52.328;10.552;2023-04-21T12:02:25;100555.47;;;18.75;43.31
21273;BME280;36726;52.328;10.552;2023-04-21T12:05:06;100540.91;;;18.88;43.45
21273;BME280;36726;52.328;10.552;2023-04-21T12:07:35;100549.66;;;18.96;44.81
21273;BME280;36726;52.328;10.552;2023-04-21T12:10:11;100540.63;;;19.00;44.48
21273;BME280;36726;52.328;10.552;2023-04-21T12:12:39;100546.00;;;19.00;43.63
21273;BME280;36726;52.328;10.552;2023-04-21T12:15:07;100544.25;;;18.98;43.38
21273;BME280;36726;52.328;10.552;2023-04-21T12:17:41;100542.53;;;18.95;44.36
21273;BME280;36726;52.328;10.552;2023-04-21T12:20:09;100536.25;;;18.96;43.85
21273;BME280;36726;52.328;10.552;2023-04-21T12:22:36;100552.38;;;18.95;43.75
21273;BME280;36726;52.328;10.552;2023-04-21T12:25:04;100548.88;;;18.91;43.87
21273;BME280;36726;52.328;10.552;2023-04-21T12:27:30;100538.25;;;18.85;42.39
21273;BME280;36726;52.328;10.552;2023-04-21T12:29:57;100537.47;;;18.80;42.01
21273;BME280;36726;52.328;10.552;2023-04-21T12:32:23;100521.47;;;18.77;42.08
21273;BME280;36726;52.328;10.552;2023-04-21T12:34:51;100523.31;;;18.75;42.10
21273;BME280;36726;52.328;10.552;2023-04-21T12:37:18;100519.69;;;18.76;43.63
21273;BME280;36726;52.328;10.552;2023-04-21T12:39:44;100517.88;;;18.78;43.32
21273;BME280;36726;52.328;10.552;2023-04-21T12:42:11;100522.22;;;18.84;42.26
21273;BME280;36726;52.328;10.552;2023-04-21T12:44:37;100504.34;;;18.84;41.39
21273;BME280;36726;52.328;10.552;2023-04-21T12:47:05;100505.25;;;18.83;41.86
21273;BME280;36726;52.328;10.552;2023-04-21T12:49:31;100508.78;;;18.85;42.16
21273;BME280;36726;52.328;10.552;2023-04-21T12:51:58;100506.09;;;18.85;42.23
21273;BME280;36726;52.328;10.552;2023-04-21T12:54:25;100512.41;;;18.84;40.52
21273;BME280;36726;52.328;10.552;2023-04-21T12:56:51;100501.59;;;18.87;41.74
21273;BME280;36726;52.328;10.552;2023-04-21T12:59:18;100497.94;;;18.91;40.23